createdAt,value
2022-11-07T00:01:47.171Z,29.63
2022-11-07T00:05:03.705Z,29.83
2022-11-07T00:08:19.888Z,29.35
2022-11-07T00:11:36.360Z,27.98
2022-11-07T00:14:52.875Z,26.40
2022-11-07T00:18:09.767Z,27.30
2022-11-07T00:21:26.224Z,26.78
2022-11-07T00:24:42.604Z,28.10
2022-11-07T00:27:58.884Z,26.15
2022-11-07T00:31:16.987Z,25.05
2022-11-07T00:34:33.704Z,24.93
2022-11-07T00:37:50.010Z,24.98
2022-11-07T00:41:08.829Z,24.28
2022-11-07T00:44:25.570Z,28.83
2022-11-07T00:47:41.832Z,27.55
2022-11-07T00:50:58.425Z,26.28
2022-11-07T00:54:15.373Z,25.15
2022-11-07T00:57:31.564Z,26.33
2022-11-07T01:00:48.272Z,29.05
2022-11-07T01:04:19.918Z,26.75
2022-11-07T01:07:38.329Z,26.63
2022-11-07T01:10:54.792Z,29.38
2022-11-07T01:14:12.712Z,27.85
2022-11-07T01:17:29.229Z,27.30
2022-11-07T01:20:46.060Z,27.70
2022-11-07T01:24:04.418Z,25.60
2022-11-07T01:27:21.007Z,25.10
2022-11-07T01:30:37.618Z,24.35
2022-11-07T01:33:54.098Z,23.90
2022-11-07T01:37:10.336Z,24.33
2022-11-07T01:40:26.816Z,22.60
2022-11-07T01:43:56.086Z,21.50
2022-11-07T01:47:12.490Z,22.10
2022-11-07T01:50:29.413Z,22.25
2022-11-07T01:53:46.833Z,22.10
2022-11-07T01:57:06.279Z,21.30
2022-11-07T02:00:26.976Z,19.68
2022-11-07T02:03:43.412Z,19.65
2022-11-07T02:07:04.423Z,19.93
2022-11-07T02:10:22.124Z,20.23
2022-11-07T02:13:39.320Z,19.85
2022-11-07T02:16:56.253Z,20.03
2022-11-07T02:20:14.207Z,20.75
2022-11-07T02:23:36.043Z,21.38
2022-11-07T02:26:53.272Z,19.30
2022-11-07T02:30:15.602Z,19.53
2022-11-07T02:33:32.726Z,20.95
2022-11-07T02:36:51.790Z,19.10
2022-11-07T02:40:11.710Z,19.55
2022-11-07T02:43:33.061Z,20.55
2022-11-07T02:46:49.767Z,18.98
2022-11-07T02:50:05.964Z,20.08
2022-11-07T02:53:22.826Z,19.90
2022-11-07T02:56:39.419Z,19.48
2022-11-07T02:59:56.585Z,19.65
2022-11-07T03:03:14.136Z,19.33
2022-11-07T03:06:33.977Z,20.18
2022-11-07T03:09:50.369Z,20.00
2022-11-07T03:13:07.396Z,20.48
2022-11-07T03:16:25.670Z,20.83
2022-11-07T03:19:42.577Z,21.85
2022-11-07T03:22:59.089Z,21.40
2022-11-07T03:26:16.435Z,20.23
2022-11-07T03:29:32.738Z,19.90
2022-11-07T03:32:50.147Z,20.68
2022-11-07T03:36:06.553Z,20.93
2022-11-07T03:39:25.813Z,19.98
2022-11-07T03:42:45.168Z,18.28
2022-11-07T03:46:01.492Z,20.48
2022-11-07T03:49:18.949Z,19.30
2022-11-07T03:52:35.408Z,17.60
2022-11-07T03:55:53.765Z,17.78
2022-11-07T03:59:10.472Z,17.98
2022-11-07T04:02:27.616Z,18.45
2022-11-07T04:05:44.519Z,17.78
2022-11-07T04:09:01.017Z,19.45
2022-11-07T04:12:33.328Z,19.48
2022-11-07T04:16:06.225Z,19.70
2022-11-07T04:19:23.100Z,19.15
2022-11-07T04:22:40.384Z,19.95
2022-11-07T04:26:10.897Z,17.98
2022-11-07T04:29:27.190Z,18.55
2022-11-07T04:32:43.411Z,18.20
2022-11-07T04:35:59.625Z,18.58
2022-11-07T04:39:15.991Z,17.70
2022-11-07T04:42:32.334Z,18.03
2022-11-07T04:45:49.929Z,18.00
2022-11-07T04:49:06.245Z,17.35
2022-11-07T04:52:23.392Z,18.55
2022-11-07T04:55:40.944Z,19.18
2022-11-07T04:58:57.170Z,19.35
2022-11-07T05:02:16.181Z,19.28
2022-11-07T05:05:32.717Z,19.75
2022-11-07T05:08:49.156Z,19.68
2022-11-07T05:12:06.648Z,19.88
2022-11-07T05:15:23.670Z,19.48
2022-11-07T05:18:39.971Z,19.23
2022-11-07T05:21:58.422Z,19.08
2022-11-07T05:25:16.676Z,18.05
2022-11-07T05:28:39.571Z,16.55
2022-11-07T05:31:54.348Z,17.25
2022-11-07T05:35:11.491Z,17.00
2022-11-07T05:38:28.105Z,16.18
2022-11-07T05:41:49.203Z,16.43
2022-11-07T05:45:06.183Z,15.30
2022-11-07T05:48:23.543Z,15.43
2022-11-07T05:51:39.741Z,16.48
2022-11-07T05:54:56.215Z,16.25
2022-11-07T05:58:18.190Z,17.03
2022-11-07T06:01:34.716Z,17.25
2022-11-07T06:04:51.276Z,16.63
2022-11-07T06:08:07.898Z,16.95
2022-11-07T06:11:24.711Z,17.45
2022-11-07T06:14:41.358Z,16.95
2022-11-07T06:18:00.772Z,17.08
2022-11-07T06:21:17.654Z,16.68
2022-11-07T06:24:33.865Z,16.28
2022-11-07T06:27:50.198Z,16.88
2022-11-07T06:31:12.133Z,15.53
2022-11-07T06:34:29.652Z,17.35
2022-11-07T06:37:46.741Z,18.05
2022-11-07T06:41:05.817Z,17.25
2022-11-07T06:44:22.295Z,17.40
2022-11-07T06:47:38.943Z,17.73
2022-11-07T06:50:57.052Z,16.85
2022-11-07T06:54:14.084Z,17.45
2022-11-07T06:57:30.676Z,16.63
2022-11-07T07:00:47.388Z,17.88
2022-11-07T07:04:06.309Z,17.38
2022-11-07T07:07:24.866Z,17.13
2022-11-07T07:10:45.573Z,17.45
2022-11-07T07:14:04.693Z,16.35
2022-11-07T07:17:23.913Z,17.43
2022-11-07T07:20:40.446Z,17.33
2022-11-07T07:24:01.021Z,17.38
2022-11-07T07:27:22.050Z,17.18
2022-11-07T07:30:51.351Z,18.05
2022-11-07T07:34:09.185Z,16.85
2022-11-07T07:37:41.217Z,17.40
2022-11-07T07:40:59.412Z,16.45
2022-11-07T07:44:23.895Z,17.63
2022-11-07T07:47:44.983Z,17.68
2022-11-07T07:51:01.512Z,15.35
2022-11-07T07:54:20.035Z,16.93
2022-11-07T07:57:50.965Z,17.38
2022-11-07T08:01:12.265Z,18.20
2022-11-07T08:04:38.635Z,16.93
2022-11-07T08:08:02.149Z,18.53
2022-11-07T08:11:19.384Z,18.48
2022-11-07T08:14:35.963Z,16.58
2022-11-07T08:17:55.043Z,17.35
2022-11-07T08:21:12.171Z,18.78
2022-11-07T08:24:30.923Z,17.25
2022-11-07T08:27:49.445Z,16.00
2022-11-07T08:31:34.400Z,17.40
2022-11-07T08:34:53.014Z,17.90
2022-11-07T08:38:12.541Z,18.77
2022-11-07T08:44:45.704Z,18.20
2022-11-07T08:48:06.198Z,16.83
2022-11-07T08:51:25.024Z,17.40
2022-11-07T08:54:41.622Z,16.45
2022-11-07T08:58:08.230Z,16.63
2022-11-07T09:04:41.986Z,15.43
2022-11-07T09:07:58.409Z,16.60
2022-11-07T09:11:16.465Z,16.13
2022-11-07T09:14:32.910Z,16.48
2022-11-07T09:17:51.824Z,17.28
2022-11-07T09:21:10.294Z,16.33
2022-11-07T09:24:32.585Z,16.50
2022-11-07T09:28:23.407Z,16.93
2022-11-07T09:31:39.623Z,14.93
2022-11-07T09:35:01.984Z,12.95
2022-11-07T09:38:15.512Z,11.90
2022-11-07T09:41:47.582Z,11.63
2022-11-07T09:46:05.543Z,11.30
2022-11-07T09:49:16.924Z,11.70
2022-11-07T09:52:42.855Z,11.63
2022-11-07T09:56:04.890Z,12.03
2022-11-07T09:59:28.107Z,11.45
2022-11-07T10:02:48.461Z,11.88
2022-11-07T10:06:14.230Z,11.30
2022-11-07T10:09:39.098Z,10.90
2022-11-07T10:13:08.365Z,11.78
2022-11-07T10:16:35.856Z,12.95
2022-11-07T10:20:24.531Z,21.25
2022-11-07T10:23:50.320Z,25.78
2022-11-07T10:27:10.889Z,17.68
2022-11-07T10:30:29.154Z,13.80
2022-11-07T10:34:08.019Z,13.83
2022-11-07T10:37:24.525Z,13.78
2022-11-07T10:40:46.872Z,13.80
2022-11-07T10:44:08.909Z,12.30
2022-11-07T10:47:35.334Z,12.80
2022-11-07T10:51:00.822Z,11.80
2022-11-07T10:54:26.069Z,12.40
2022-11-07T10:57:43.512Z,10.90
2022-11-07T11:01:13.621Z,9.88
2022-11-07T11:04:35.134Z,9.95
2022-11-07T11:07:51.580Z,8.93
2022-11-07T11:11:10.486Z,8.88
2022-11-07T11:14:34.153Z,74.88
2022-11-07T11:17:52.722Z,30.35
2022-11-07T11:21:11.082Z,10.60
2022-11-07T11:24:42.622Z,7.60
2022-11-07T11:28:04.331Z,6.50
2022-11-07T11:31:30.077Z,6.10
2022-11-07T11:34:55.644Z,6.00
2022-11-07T11:38:17.146Z,5.65
2022-11-07T11:41:41.585Z,5.50
2022-11-07T11:45:01.939Z,5.30
2022-11-07T11:48:24.668Z,5.18
2022-11-07T11:51:48.650Z,5.35
2022-11-07T11:55:06.460Z,4.98
2022-11-07T11:58:34.793Z,5.50
2022-11-07T12:07:50.405Z,4.70
2022-11-07T12:11:13.174Z,4.38
2022-11-07T12:15:03.351Z,4.23
2022-11-07T12:18:27.658Z,4.35
2022-11-07T12:21:49.484Z,5.00
2022-11-07T12:25:10.588Z,3.98
2022-11-07T12:28:39.284Z,3.38
2022-11-07T12:32:07.591Z,4.03
2022-11-07T12:35:42.637Z,3.83
2022-11-07T12:39:34.461Z,4.30
2022-11-07T12:43:00.112Z,3.88
2022-11-07T12:46:22.624Z,3.73
2022-11-07T12:50:08.204Z,3.68
2022-11-07T12:53:35.480Z,3.70
2022-11-07T12:56:52.544Z,3.50
2022-11-07T13:00:13.528Z,3.45
2022-11-07T13:03:48.063Z,3.30
2022-11-07T13:07:09.562Z,2.83
2022-11-07T13:10:30.571Z,3.00
2022-11-07T13:13:58.239Z,2.50
2022-11-07T13:17:44.321Z,2.63
2022-11-07T13:21:10.291Z,2.65
2022-11-07T13:24:31.537Z,2.65
2022-11-07T13:27:50.276Z,3.38
2022-11-07T13:31:09.624Z,3.00
2022-11-07T13:37:47.893Z,3.03
2022-11-07T13:41:08.370Z,3.38
2022-11-07T13:44:31.922Z,3.18
2022-11-07T13:47:51.081Z,2.98
2022-11-07T13:54:32.887Z,2.60
2022-11-07T13:57:53.586Z,2.90
2022-11-07T14:01:19.273Z,2.83
2022-11-07T14:04:44.592Z,2.90
2022-11-07T14:08:00.060Z,2.88
2022-11-07T14:11:25.034Z,3.40
2022-11-07T14:14:42.909Z,2.78
2022-11-07T14:17:59.532Z,3.08
2022-11-07T14:21:27.138Z,3.33
2022-11-07T14:24:50.649Z,3.50
2022-11-07T14:28:08.258Z,2.68
2022-11-07T14:31:30.483Z,2.88
2022-11-07T14:34:51.492Z,2.95
2022-11-07T14:38:16.687Z,2.80
2022-11-07T14:41:33.607Z,3.13
2022-11-07T14:44:55.207Z,3.10
2022-11-07T14:48:45.060Z,3.38
2022-11-07T14:57:00.101Z,9.68
2022-11-07T15:00:22.731Z,10.10
2022-11-07T15:06:55.569Z,3.55
2022-11-07T15:10:31.529Z,3.90
2022-11-07T15:13:48.939Z,3.53
2022-11-07T15:17:05.696Z,3.73
2022-11-07T15:20:39.530Z,3.35
2022-11-07T15:23:55.853Z,2.80
2022-11-07T15:27:22.614Z,3.45
2022-11-07T15:30:41.880Z,3.15
2022-11-07T15:33:58.605Z,3.30
2022-11-07T15:37:22.138Z,4.28
2022-11-07T15:40:40.516Z,4.38
2022-11-07T15:44:10.679Z,4.90
2022-11-07T15:47:33.605Z,6.33
2022-11-07T15:50:58.246Z,4.60
2022-11-07T15:54:19.518Z,4.48
2022-11-07T15:57:35.905Z,4.25
2022-11-07T16:00:52.034Z,3.83
2022-11-07T16:04:08.270Z,3.88
2022-11-07T16:07:28.081Z,4.33
2022-11-07T16:10:44.627Z,4.28
2022-11-07T16:14:29.432Z,4.20
2022-11-07T16:17:23.764Z,4.73
2022-11-07T16:20:40.184Z,4.48
2022-11-07T16:23:57.553Z,4.90
2022-11-07T16:27:15.421Z,4.83
2022-11-07T16:30:33.570Z,5.05
2022-11-07T16:33:49.863Z,5.65
2022-11-07T16:37:06.475Z,5.43
2022-11-07T16:40:31.296Z,4.95
2022-11-07T16:43:49.505Z,4.68
2022-11-07T16:47:06.478Z,5.25
2022-11-07T16:50:25.488Z,5.80
2022-11-07T16:53:41.942Z,6.15
2022-11-07T16:56:58.833Z,6.20
2022-11-07T17:00:24.895Z,6.88
2022-11-07T17:03:41.691Z,7.30
2022-11-07T17:06:57.971Z,7.05
2022-11-07T17:10:21.006Z,6.20
2022-11-07T17:13:37.018Z,6.53
2022-11-07T17:16:56.075Z,7.18
2022-11-07T17:20:28.418Z,6.60
2022-11-07T17:23:38.123Z,7.20
2022-11-07T17:26:54.299Z,7.35
2022-11-07T17:30:17.255Z,8.05
2022-11-07T17:33:34.286Z,7.23
2022-11-07T17:36:55.806Z,7.10
2022-11-07T17:40:13.399Z,7.18
2022-11-07T17:43:31.931Z,7.25
2022-11-07T17:47:00.053Z,11.28
2022-11-07T17:50:24.591Z,8.83
2022-11-07T17:53:41.465Z,9.23
2022-11-07T17:56:57.972Z,8.08
2022-11-07T18:00:23.272Z,8.05
2022-11-07T18:03:40.625Z,8.05
2022-11-07T18:06:57.441Z,9.30
2022-11-07T18:10:16.939Z,10.18
2022-11-07T18:13:34.781Z,9.48
2022-11-07T18:25:56.934Z,8.78
2022-11-07T18:29:26.922Z,9.60
2022-11-07T18:32:42.924Z,9.80
2022-11-07T18:36:19.421Z,10.30
2022-11-07T18:39:34.164Z,10.20
2022-11-07T18:42:54.105Z,10.20
2022-11-07T18:46:14.573Z,11.13
2022-11-07T18:49:44.021Z,12.23
2022-11-07T18:53:00.336Z,10.85
2022-11-07T18:56:19.745Z,11.50
2022-11-07T18:59:36.252Z,11.00
2022-11-07T19:03:09.681Z,10.08
2022-11-07T19:06:28.613Z,10.75
2022-11-07T19:09:45.141Z,11.23
2022-11-07T19:13:07.857Z,11.70
2022-11-07T19:16:22.712Z,10.63
2022-11-07T19:19:38.943Z,11.85
2022-11-07T19:22:55.412Z,10.90
2022-11-07T19:26:13.543Z,12.00
2022-11-07T19:29:30.377Z,11.35
2022-11-07T19:32:49.003Z,12.50
2022-11-07T19:36:11.294Z,13.30
2022-11-07T19:39:27.540Z,15.85
2022-11-07T19:42:44.101Z,14.00
2022-11-07T19:46:00.628Z,13.73
2022-11-07T19:49:17.064Z,12.50
2022-11-07T19:52:34.260Z,12.65
2022-11-07T19:55:51.908Z,13.88
2022-11-07T19:59:08.831Z,12.78
2022-11-07T20:02:35.509Z,11.83
2022-11-07T20:05:48.555Z,10.93
2022-11-07T20:09:05.066Z,11.75
2022-11-07T20:12:21.318Z,11.15
2022-11-07T20:15:37.871Z,10.73
2022-11-07T20:18:54.657Z,11.63
2022-11-07T20:22:15.121Z,12.50
2022-11-07T20:25:33.727Z,11.68
2022-11-07T20:28:50.380Z,11.28
2022-11-07T20:32:06.567Z,11.63
2022-11-07T20:35:23.018Z,11.70
2022-11-07T20:38:40.185Z,11.03
2022-11-07T20:41:57.054Z,11.80
2022-11-07T20:45:15.184Z,11.73
2022-11-07T20:48:31.768Z,12.38
2022-11-07T20:51:48.507Z,12.03
2022-11-07T20:55:05.293Z,13.10
2022-11-07T20:58:23.989Z,13.05
2022-11-07T21:01:43.299Z,12.38
2022-11-07T21:08:18.705Z,14.93
2022-11-07T21:11:35.801Z,14.28
2022-11-07T21:14:52.154Z,13.73
2022-11-07T21:18:09.828Z,14.45
2022-11-07T21:21:29.792Z,13.80
2022-11-07T21:24:46.463Z,14.45
2022-11-07T21:28:06.758Z,15.30
2022-11-07T21:31:29.167Z,13.90
2022-11-07T21:34:47.118Z,14.48
2022-11-07T21:38:04.126Z,14.83
2022-11-07T21:41:21.390Z,15.28
2022-11-07T21:44:38.452Z,15.95
2022-11-07T21:47:55.240Z,15.03
2022-11-07T21:51:23.240Z,14.63
2022-11-07T21:54:42.691Z,14.85
2022-11-07T21:57:58.875Z,14.00
2022-11-07T22:01:16.287Z,13.88
2022-11-07T22:04:33.200Z,13.15
2022-11-07T22:07:55.454Z,13.63
2022-11-07T22:11:20.273Z,12.95
2022-11-07T22:14:36.575Z,12.93
2022-11-07T22:17:53.486Z,12.55
2022-11-07T22:21:27.351Z,12.08
2022-11-07T22:24:43.859Z,12.00
2022-11-07T22:28:04.351Z,12.38
2022-11-07T22:31:25.925Z,11.60
2022-11-07T22:34:44.554Z,11.30
2022-11-07T22:38:03.447Z,12.13
2022-11-07T22:41:26.320Z,12.25
2022-11-07T22:44:42.806Z,11.83
2022-11-07T22:47:59.014Z,11.90
2022-11-07T22:54:32.382Z,12.03
2022-11-07T22:57:49.017Z,12.30
2022-11-07T23:01:05.773Z,11.70
2022-11-07T23:04:28.621Z,11.93
2022-11-07T23:07:42.449Z,12.28
2022-11-07T23:14:30.947Z,11.75
2022-11-07T23:17:49.441Z,12.20
2022-11-07T23:21:16.189Z,11.38
2022-11-07T23:24:32.581Z,11.10
2022-11-07T23:27:48.739Z,11.85
2022-11-07T23:31:05.724Z,11.23
2022-11-07T23:34:23.540Z,10.73
2022-11-07T23:37:40.691Z,11.50
2022-11-07T23:40:58.463Z,11.00
2022-11-07T23:44:19.217Z,10.60
2022-11-07T23:48:04.361Z,10.25
2022-11-07T23:54:56.052Z,10.83
2022-11-07T23:58:26.331Z,11.33
